sensor_id;sensor_type;location;lat;lon;timestamp;pressure;altitude;pressure_sealevel;temperature;humidity
50302;BME280;36550;50.472;19.744;2022-12-20T00:00:49;98950.44;;;0.43;75.02
50302;BME280;36550;50.472;19.744;2022-12-20T00:03:34;98951.45;;;0.46;75.00
50302;BME280;36550;50.472;19.744;2022-12-20T00:06:18;98946.94;;;0.48;74.97
50302;BME280;36550;50.472;19.744;2022-12-20T00:09:05;98948.27;;;0.52;75.16
50302;BME280;36550;50.472;19.744;2022-12-20T00:11:50;98948.64;;;0.57;75.19
50302;BME280;36550;50.472;19.744;2022-12-20T00:14:34;98950.31;;;0.63;75.32
50302;BME280;36550;50.472;19.744;2022-12-20T00:17:18;98944.20;;;0.68;75.24
50302;BME280;36550;50.472;19.744;2022-12-20T00:20:03;98947.80;;;0.71;75.12
50302;BME280;36550;50.472;19.744;2022-12-20T00:22:48;98944.27;;;0.72;75.07
50302;BME280;36550;50.472;19.744;2022-12-20T00:25:33;98946.53;;;0.75;75.12
50302;BME280;36550;50.472;19.744;2022-12-20T00:28:17;98949.45;;;0.76;74.86
50302;BME280;36550;50.472;19.744;2022-12-20T00:31:02;98947.36;;;0.75;74.62
50302;BME280;36550;50.472;19.744;2022-12-20T00:33:48;98955.57;;;0.75;74.64
50302;BME280;36550;50.472;19.744;2022-12-20T00:36:34;98938.46;;;0.74;74.50
50302;BME280;36550;50.472;19.744;2022-12-20T00:39:18;98938.32;;;0.75;74.76
50302;BME280;36550;50.472;19.744;2022-12-20T00:42:02;98943.66;;;0.78;74.83
50302;BME280;36550;50.472;19.744;2022-12-20T00:44:47;98934.47;;;0.80;74.88
50302;BME280;36550;50.472;19.744;2022-12-20T00:47:31;98936.28;;;0.83;75.00
50302;BME280;36550;50.472;19.744;2022-12-20T00:50:16;98933.72;;;0.87;74.95
50302;BME280;36550;50.472;19.744;2022-12-20T00:53:00;98928.75;;;0.90;74.94
50302;BME280;36550;50.472;19.744;2022-12-20T00:55:45;98928.92;;;0.92;74.30
50302;BME280;36550;50.472;19.744;2022-12-20T00:58:31;98929.27;;;0.93;74.67
50302;BME280;36550;50.472;19.744;2022-12-20T01:01:25;98930.88;;;0.94;74.47
50302;BME280;36550;50.472;19.744;2022-12-20T01:04:13;98928.95;;;0.96;74.65
50302;BME280;36550;50.472;19.744;2022-12-20T01:06:57;98928.66;;;1.00;74.70
50302;BME280;36550;50.472;19.744;2022-12-20T01:09:41;98923.80;;;1.01;74.47
50302;BME280;36550;50.472;19.744;2022-12-20T01:12:26;98923.37;;;1.05;74.71
50302;BME280;36550;50.472;19.744;2022-12-20T01:15:10;98918.05;;;1.07;74.57
50302;BME280;36550;50.472;19.744;2022-12-20T01:17:55;98912.56;;;1.10;74.25
50302;BME280;36550;50.472;19.744;2022-12-20T01:20:40;98920.17;;;1.11;74.61
50302;BME280;36550;50.472;19.744;2022-12-20T01:23:24;98916.00;;;1.14;74.33
50302;BME280;36550;50.472;19.744;2022-12-20T01:26:12;98918.44;;;1.16;74.28
50302;BME280;36550;50.472;19.744;2022-12-20T01:28:58;98918.75;;;1.17;74.40
50302;BME280;36550;50.472;19.744;2022-12-20T01:31:43;98922.02;;;1.19;74.30
50302;BME280;36550;50.472;19.744;2022-12-20T01:34:28;98917.02;;;1.22;74.48
50302;BME280;36550;50.472;19.744;2022-12-20T01:37:12;98919.14;;;1.26;74.57
50302;BME280;36550;50.472;19.744;2022-12-20T01:39:56;98917.05;;;1.30;74.56
50302;BME280;36550;50.472;19.744;2022-12-20T01:42:41;98914.67;;;1.32;74.45
50302;BME280;36550;50.472;19.744;2022-12-20T01:45:29;98915.47;;;1.33;74.42
50302;BME280;36550;50.472;19.744;2022-12-20T01:48:17;98918.71;;;1.35;74.26
50302;BME280;36550;50.472;19.744;2022-12-20T01:51:04;98923.88;;;1.35;74.23
50302;BME280;36550;50.472;19.744;2022-12-20T01:53:52;98913.05;;;1.35;74.27
50302;BME280;36550;50.472;19.744;2022-12-20T01:56:40;98902.54;;;1.33;74.13
50302;BME280;36550;50.472;19.744;2022-12-20T01:59:27;98895.08;;;1.30;74.04
50302;BME280;36550;50.472;19.744;2022-12-20T02:02:12;98898.64;;;1.29;74.23
50302;BME280;36550;50.472;19.744;2022-12-20T02:04:57;98893.96;;;1.28;74.34
50302;BME280;36550;50.472;19.744;2022-12-20T02:07:42;98894.13;;;1.31;74.37
50302;BME280;36550;50.472;19.744;2022-12-20T02:16:43;98900.45;;;1.32;74.36
50302;BME280;36550;50.472;19.744;2022-12-20T02:26:30;98893.64;;;1.31;74.57
50302;BME280;36550;50.472;19.744;2022-12-20T02:30:23;98899.30;;;1.31;74.64
50302;BME280;36550;50.472;19.744;2022-12-20T02:32:59;98880.86;;;1.30;74.62
50302;BME280;36550;50.472;19.744;2022-12-20T02:35:45;98890.69;;;1.26;74.68
50302;BME280;36550;50.472;19.744;2022-12-20T02:38:36;98878.40;;;1.24;74.64
50302;BME280;36550;50.472;19.744;2022-12-20T02:41:26;98880.33;;;1.22;74.57
50302;BME280;36550;50.472;19.744;2022-12-20T02:44:23;98880.95;;;1.16;74.54
50302;BME280;36550;50.472;19.744;2022-12-20T02:47:33;98878.68;;;1.17;74.73
50302;BME280;36550;50.472;19.744;2022-12-20T02:50:33;98867.53;;;1.17;74.74
50302;BME280;36550;50.472;19.744;2022-12-20T02:53:23;98855.39;;;1.13;74.84
50302;BME280;36550;50.472;19.744;2022-12-20T02:59:22;98841.17;;;1.13;74.67
50302;BME280;36550;50.472;19.744;2022-12-20T03:02:09;98842.45;;;1.09;74.46
50302;BME280;36550;50.472;19.744;2022-12-20T03:04:54;98837.07;;;1.02;74.51
50302;BME280;36550;50.472;19.744;2022-12-20T03:07:40;98844.66;;;1.00;74.70
50302;BME280;36550;50.472;19.744;2022-12-20T03:10:24;98834.81;;;0.99;74.84
50302;BME280;36550;50.472;19.744;2022-12-20T03:13:09;98839.64;;;0.98;74.82
50302;BME280;36550;50.472;19.744;2022-12-20T03:15:53;98846.39;;;0.95;74.78
50302;BME280;36550;50.472;19.744;2022-12-20T03:18:38;98842.64;;;0.89;74.70
50302;BME280;36550;50.472;19.744;2022-12-20T03:21:22;98857.77;;;0.80;74.60
50302;BME280;36550;50.472;19.744;2022-12-20T03:24:07;98858.69;;;0.75;74.64
50302;BME280;36550;50.472;19.744;2022-12-20T03:26:51;98847.70;;;0.73;74.80
50302;BME280;36550;50.472;19.744;2022-12-20T03:29:35;98847.38;;;0.72;74.85
50302;BME280;36550;50.472;19.744;2022-12-20T03:32:20;98838.14;;;0.69;74.79
50302;BME280;36550;50.472;19.744;2022-12-20T03:35:05;98825.03;;;0.63;74.77
50302;BME280;36550;50.472;19.744;2022-12-20T03:37:49;98824.98;;;0.58;74.81
50302;BME280;36550;50.472;19.744;2022-12-20T03:40:33;98818.50;;;0.54;74.85
50302;BME280;36550;50.472;19.744;2022-12-20T03:43:18;98817.04;;;0.52;74.98
50302;BME280;36550;50.472;19.744;2022-12-20T03:46:02;98824.28;;;0.48;75.13
50302;BME280;36550;50.472;19.744;2022-12-20T03:48:46;98827.48;;;0.46;75.11
50302;BME280;36550;50.472;19.744;2022-12-20T03:51:31;98839.40;;;0.43;75.17
50302;BME280;36550;50.472;19.744;2022-12-20T03:54:15;98830.36;;;0.43;75.21
50302;BME280;36550;50.472;19.744;2022-12-20T03:56:59;98815.64;;;0.40;75.18
50302;BME280;36550;50.472;19.744;2022-12-20T03:59:44;98812.37;;;0.33;75.20
50302;BME280;36550;50.472;19.744;2022-12-20T04:02:28;98803.48;;;0.32;75.21
50302;BME280;36550;50.472;19.744;2022-12-20T04:05:12;98794.56;;;0.26;75.30
50302;BME280;36550;50.472;19.744;2022-12-20T04:07:57;98812.13;;;0.23;75.42
50302;BME280;36550;50.472;19.744;2022-12-20T04:10:41;98811.63;;;0.23;75.45
50302;BME280;36550;50.472;19.744;2022-12-20T04:13:47;98802.22;;;0.18;75.54
50302;BME280;36550;50.472;19.744;2022-12-20T04:16:34;98802.69;;;0.13;75.57
50302;BME280;36550;50.472;19.744;2022-12-20T04:19:19;98796.52;;;0.10;75.61
50302;BME280;36550;50.472;19.744;2022-12-20T04:22:03;98793.25;;;0.04;75.66
50302;BME280;36550;50.472;19.744;2022-12-20T04:24:47;98799.32;;;-0.01;75.87
50302;BME280;36550;50.472;19.744;2022-12-20T04:27:32;98804.31;;;-0.04;75.87
50302;BME280;36550;50.472;19.744;2022-12-20T04:30:16;98807.66;;;-0.07;75.97
50302;BME280;36550;50.472;19.744;2022-12-20T04:33:00;98810.84;;;-0.09;76.00
50302;BME280;36550;50.472;19.744;2022-12-20T04:35:45;98807.59;;;-0.11;76.05
50302;BME280;36550;50.472;19.744;2022-12-20T04:38:30;98806.94;;;-0.13;76.20
50302;BME280;36550;50.472;19.744;2022-12-20T04:41:15;98819.52;;;-0.14;76.23
50302;BME280;36550;50.472;19.744;2022-12-20T04:44:05;98811.56;;;-0.17;76.42
50302;BME280;36550;50.472;19.744;2022-12-20T04:46:49;98802.85;;;-0.20;76.59
50302;BME280;36550;50.472;19.744;2022-12-20T04:49:33;98806.55;;;-0.18;76.62
50302;BME280;36550;50.472;19.744;2022-12-20T04:52:17;98804.32;;;-0.17;76.70
50302;BME280;36550;50.472;19.744;2022-12-20T04:55:20;98803.83;;;-0.17;76.66
50302;BME280;36550;50.472;19.744;2022-12-20T04:58:05;98795.32;;;-0.13;76.78
50302;BME280;36550;50.472;19.744;2022-12-20T05:00:50;98788.87;;;-0.13;76.77
50302;BME280;36550;50.472;19.744;2022-12-20T05:03:37;98794.38;;;-0.12;76.71
50302;BME280;36550;50.472;19.744;2022-12-20T05:06:21;98790.16;;;-0.13;76.66
50302;BME280;36550;50.472;19.744;2022-12-20T05:09:05;98786.92;;;-0.15;76.66
50302;BME280;36550;50.472;19.744;2022-12-20T05:11:50;98781.13;;;-0.13;76.65
50302;BME280;36550;50.472;19.744;2022-12-20T05:14:34;98790.97;;;-0.13;76.68
50302;BME280;36550;50.472;19.744;2022-12-20T05:17:18;98793.89;;;-0.12;76.68
50302;BME280;36550;50.472;19.744;2022-12-20T05:20:04;98792.60;;;-0.12;76.73
50302;BME280;36550;50.472;19.744;2022-12-20T05:22:48;98797.27;;;-0.11;76.79
50302;BME280;36550;50.472;19.744;2022-12-20T05:25:52;98785.52;;;-0.10;76.79
50302;BME280;36550;50.472;19.744;2022-12-20T05:28:55;98782.45;;;-0.09;76.89
50302;BME280;36550;50.472;19.744;2022-12-20T05:31:40;98783.92;;;-0.11;76.88
50302;BME280;36550;50.472;19.744;2022-12-20T05:34:24;98775.06;;;-0.08;76.87
50302;BME280;36550;50.472;19.744;2022-12-20T05:37:08;98779.28;;;-0.07;76.93
50302;BME280;36550;50.472;19.744;2022-12-20T05:39:53;98773.66;;;-0.03;76.92
50302;BME280;36550;50.472;19.744;2022-12-20T05:42:37;98776.59;;;-0.02;76.95
50302;BME280;36550;50.472;19.744;2022-12-20T05:45:21;98773.37;;;0.01;76.95
50302;BME280;36550;50.472;19.744;2022-12-20T05:48:06;98774.20;;;0.05;76.94
50302;BME280;36550;50.472;19.744;2022-12-20T05:50:50;98773.58;;;0.07;76.88
50302;BME280;36550;50.472;19.744;2022-12-20T05:53:34;98778.45;;;0.10;76.85
50302;BME280;36550;50.472;19.744;2022-12-20T05:56:19;98777.50;;;0.11;76.65
50302;BME280;36550;50.472;19.744;2022-12-20T05:59:03;98781.84;;;0.11;76.62
50302;BME280;36550;50.472;19.744;2022-12-20T06:01:48;98788.48;;;0.13;76.47
50302;BME280;36550;50.472;19.744;2022-12-20T06:04:32;98793.97;;;0.14;76.43
50302;BME280;36550;50.472;19.744;2022-12-20T06:07:16;98782.35;;;0.14;76.43
50302;BME280;36550;50.472;19.744;2022-12-20T06:10:02;98776.73;;;0.15;76.31
50302;BME280;36550;50.472;19.744;2022-12-20T06:12:47;98773.66;;;0.15;76.24
50302;BME280;36550;50.472;19.744;2022-12-20T06:15:31;98770.10;;;0.16;76.27
50302;BME280;36550;50.472;19.744;2022-12-20T06:18:15;98770.30;;;0.19;76.22
50302;BME280;36550;50.472;19.744;2022-12-20T06:21:00;98769.02;;;0.19;76.14
50302;BME280;36550;50.472;19.744;2022-12-20T06:23:44;98761.78;;;0.23;76.23
50302;BME280;36550;50.472;19.744;2022-12-20T06:26:28;98758.91;;;0.26;76.14
50302;BME280;36550;50.472;19.744;2022-12-20T06:29:14;98755.36;;;0.27;76.10
50302;BME280;36550;50.472;19.744;2022-12-20T06:32:00;98747.32;;;0.30;75.97
50302;BME280;36550;50.472;19.744;2022-12-20T06:34:44;98747.00;;;0.33;75.98
50302;BME280;36550;50.472;19.744;2022-12-20T06:37:28;98750.27;;;0.35;76.02
50302;BME280;36550;50.472;19.744;2022-12-20T06:40:13;98747.36;;;0.38;75.82
50302;BME280;36550;50.472;19.744;2022-12-20T06:42:58;98746.59;;;0.42;75.76
50302;BME280;36550;50.472;19.744;2022-12-20T06:45:42;98737.75;;;0.44;75.73
50302;BME280;36550;50.472;19.744;2022-12-20T06:48:26;98736.97;;;0.48;75.49
50302;BME280;36550;50.472;19.744;2022-12-20T06:51:10;98736.64;;;0.51;75.44
50302;BME280;36550;50.472;19.744;2022-12-20T06:53:55;98738.13;;;0.53;75.33
50302;BME280;36550;50.472;19.744;2022-12-20T06:56:40;98740.39;;;0.56;75.21
50302;BME280;36550;50.472;19.744;2022-12-20T06:59:24;98740.39;;;0.56;75.07
50302;BME280;36550;50.472;19.744;2022-12-20T07:02:10;98732.33;;;0.55;74.82
50302;BME280;36550;50.472;19.744;2022-12-20T07:04:55;98737.49;;;0.55;74.92
50302;BME280;36550;50.472;19.744;2022-12-20T07:07:39;98746.53;;;0.55;74.73
50302;BME280;36550;50.472;19.744;2022-12-20T07:10:24;98737.34;;;0.57;74.77
50302;BME280;36550;50.472;19.744;2022-12-20T07:13:08;98737.80;;;0.56;74.48
50302;BME280;36550;50.472;19.744;2022-12-20T07:15:57;98740.88;;;0.56;74.67
50302;BME280;36550;50.472;19.744;2022-12-20T07:18:42;98736.52;;;0.56;74.51
50302;BME280;36550;50.472;19.744;2022-12-20T07:21:26;98740.73;;;0.57;74.60
50302;BME280;36550;50.472;19.744;2022-12-20T07:24:11;98743.63;;;0.58;74.46
50302;BME280;36550;50.472;19.744;2022-12-20T07:26:55;98744.96;;;0.63;74.37
50302;BME280;36550;50.472;19.744;2022-12-20T07:29:39;98756.45;;;0.68;74.36
50302;BME280;36550;50.472;19.744;2022-12-20T07:32:24;98752.30;;;0.75;74.34
50302;BME280;36550;50.472;19.744;2022-12-20T07:35:10;98756.86;;;0.86;74.16
50302;BME280;36550;50.472;19.744;2022-12-20T07:37:55;98755.44;;;0.91;74.27
50302;BME280;36550;50.472;19.744;2022-12-20T07:40:40;98749.52;;;0.99;74.26
50302;BME280;36550;50.472;19.744;2022-12-20T07:43:24;98751.78;;;1.02;74.04
50302;BME280;36550;50.472;19.744;2022-12-20T07:46:09;98753.22;;;1.01;74.01
50302;BME280;36550;50.472;19.744;2022-12-20T07:48:56;98755.02;;;1.04;73.85
50302;BME280;36550;50.472;19.744;2022-12-20T07:51:43;98756.31;;;1.04;73.86
50302;BME280;36550;50.472;19.744;2022-12-20T07:54:35;98750.34;;;1.08;73.78
50302;BME280;36550;50.472;19.744;2022-12-20T07:57:30;98743.25;;;1.10;73.48
50302;BME280;36550;50.472;19.744;2022-12-20T08:00:19;98750.84;;;1.11;73.42
50302;BME280;36550;50.472;19.744;2022-12-20T08:03:17;98753.94;;;1.15;73.24
50302;BME280;36550;50.472;19.744;2022-12-20T08:06:06;98753.64;;;1.22;73.52
50302;BME280;36550;50.472;19.744;2022-12-20T08:08:54;98755.30;;;1.31;73.55
50302;BME280;36550;50.472;19.744;2022-12-20T08:11:42;98744.01;;;1.41;73.63
50302;BME280;36550;50.472;19.744;2022-12-20T08:14:28;98732.41;;;1.49;73.41
50302;BME280;36550;50.472;19.744;2022-12-20T08:17:13;98729.83;;;1.57;73.31
50302;BME280;36550;50.472;19.744;2022-12-20T08:19:57;98727.42;;;1.68;73.30
50302;BME280;36550;50.472;19.744;2022-12-20T08:22:43;98721.45;;;1.76;73.33
50302;BME280;36550;50.472;19.744;2022-12-20T08:25:28;98718.57;;;1.87;72.95
50302;BME280;36550;50.472;19.744;2022-12-20T08:28:12;98719.36;;;1.96;72.96
50302;BME280;36550;50.472;19.744;2022-12-20T08:31:02;98710.47;;;2.06;73.07
50302;BME280;36550;50.472;19.744;2022-12-20T08:33:47;98715.01;;;2.17;72.77
50302;BME280;36550;50.472;19.744;2022-12-20T08:36:31;98714.83;;;2.26;72.04
50302;BME280;36550;50.472;19.744;2022-12-20T08:39:15;98716.59;;;2.34;72.32
50302;BME280;36550;50.472;19.744;2022-12-20T08:42:00;98714.31;;;2.43;72.19
50302;BME280;36550;50.472;19.744;2022-12-20T08:44:44;98706.21;;;2.50;71.76
50302;BME280;36550;50.472;19.744;2022-12-20T08:47:29;98720.92;;;2.58;71.37
50302;BME280;36550;50.472;19.744;2022-12-20T08:50:13;98720.59;;;2.65;70.82
50302;BME280;36550;50.472;19.744;2022-12-20T08:52:57;98708.59;;;2.73;70.82
50302;BME280;36550;50.472;19.744;2022-12-20T08:55:42;98704.52;;;2.78;70.19
50302;BME280;36550;50.472;19.744;2022-12-20T08:58:26;98709.88;;;2.81;70.23
50302;BME280;36550;50.472;19.744;2022-12-20T09:01:13;98714.41;;;2.83;69.68
50302;BME280;36550;50.472;19.744;2022-12-20T09:03:59;98724.45;;;2.86;69.82
50302;BME280;36550;50.472;19.744;2022-12-20T09:06:43;98728.31;;;2.90;70.04
50302;BME280;36550;50.472;19.744;2022-12-20T09:09:27;98721.52;;;2.93;70.34
50302;BME280;36550;50.472;19.744;2022-12-20T09:12:12;98717.62;;;2.93;70.09
50302;BME280;36550;50.472;19.744;2022-12-20T09:14:56;98713.87;;;2.96;70.15
50302;BME280;36550;50.472;19.744;2022-12-20T09:17:40;98701.21;;;2.97;69.69
50302;BME280;36550;50.472;19.744;2022-12-20T09:20:24;98696.52;;;2.96;69.57
50302;BME280;36550;50.472;19.744;2022-12-20T09:23:09;98690.67;;;2.98;69.62
50302;BME280;36550;50.472;19.744;2022-12-20T09:25:53;98687.43;;;3.04;69.14
50302;BME280;36550;50.472;19.744;2022-12-20T09:28:38;98692.75;;;3.07;69.12
50302;BME280;36550;50.472;19.744;2022-12-20T09:31:24;98691.77;;;3.12;69.52
50302;BME280;36550;50.472;19.744;2022-12-20T09:34:09;98695.13;;;3.17;69.25
50302;BME280;36550;50.472;19.744;2022-12-20T09:36:54;98697.26;;;3.17;68.89
50302;BME280;36550;50.472;19.744;2022-12-20T09:39:38;98685.59;;;3.17;68.70
50302;BME280;36550;50.472;19.744;2022-12-20T09:42:25;98702.75;;;3.18;68.83
50302;BME280;36550;50.472;19.744;2022-12-20T09:45:17;98709.56;;;3.19;68.91
50302;BME280;36550;50.472;19.744;2022-12-20T09:48:00;98708.88;;;3.25;69.19
50302;BME280;36550;50.472;19.744;2022-12-20T09:50:52;98703.03;;;3.27;68.77
50302;BME280;36550;50.472;19.744;2022-12-20T09:54:03;98706.95;;;3.23;68.65
50302;BME280;36550;50.472;19.744;2022-12-20T09:59:56;98684.13;;;3.19;68.58
50302;BME280;36550;50.472;19.744;2022-12-20T10:02:41;98699.52;;;3.16;68.58
50302;BME280;36550;50.472;19.744;2022-12-20T10:06:14;98689.80;;;3.14;69.04
50302;BME280;36550;50.472;19.744;2022-12-20T10:08:49;98689.31;;;3.15;68.85
50302;BME280;36550;50.472;19.744;2022-12-20T10:18:33;98677.75;;;3.25;69.22
50302;BME280;36550;50.472;19.744;2022-12-20T10:24:44;98670.50;;;3.21;69.00
50302;BME280;36550;50.472;19.744;2022-12-20T10:27:42;98672.27;;;3.20;68.89
50302;BME280;36550;50.472;19.744;2022-12-20T10:30:28;98668.04;;;3.23;69.13
50302;BME280;36550;50.472;19.744;2022-12-20T10:33:21;98656.20;;;3.25;68.95
50302;BME280;36550;50.472;19.744;2022-12-20T10:39:14;98643.00;;;3.35;69.02
50302;BME280;36550;50.472;19.744;2022-12-20T10:41:58;98632.42;;;3.40;69.04
50302;BME280;36550;50.472;19.744;2022-12-20T10:44:43;98622.20;;;3.43;68.88
50302;BME280;36550;50.472;19.744;2022-12-20T10:47:37;98618.45;;;3.45;68.93
50302;BME280;36550;50.472;19.744;2022-12-20T10:50:22;98625.06;;;3.52;68.96
50302;BME280;36550;50.472;19.744;2022-12-20T10:56:28;98614.93;;;3.61;68.38
50302;BME280;36550;50.472;19.744;2022-12-20T11:06:11;98604.92;;;3.54;67.76
50302;BME280;36550;50.472;19.744;2022-12-20T11:12:13;98625.72;;;3.50;68.27
50302;BME280;36550;50.472;19.744;2022-12-20T11:15:08;98623.39;;;3.55;68.43
50302;BME280;36550;50.472;19.744;2022-12-20T11:24:16;98610.50;;;3.66;68.29
50302;BME280;36550;50.472;19.744;2022-12-20T11:30:19;98599.15;;;3.67;68.34
50302;BME280;36550;50.472;19.744;2022-12-20T11:36:03;98589.05;;;3.72;68.24
50302;BME280;36550;50.472;19.744;2022-12-20T11:39:09;98588.22;;;3.72;68.05
50302;BME280;36550;50.472;19.744;2022-12-20T11:49:34;98577.39;;;3.68;68.11
50302;BME280;36550;50.472;19.744;2022-12-20T11:51:57;98587.14;;;3.66;68.31
50302;BME280;36550;50.472;19.744;2022-12-20T11:54:52;98580.48;;;3.68;68.23
50302;BME280;36550;50.472;19.744;2022-12-20T12:01:05;98608.94;;;3.61;68.40
50302;BME280;36550;50.472;19.744;2022-12-20T12:04:04;98610.37;;;3.63;68.44
50302;BME280;36550;50.472;19.744;2022-12-20T12:07:02;98606.27;;;3.69;68.44
50302;BME280;36550;50.472;19.744;2022-12-20T12:10:19;98605.94;;;3.68;68.12
50302;BME280;36550;50.472;19.744;2022-12-20T12:13:17;98606.09;;;3.71;68.63
50302;BME280;36550;50.472;19.744;2022-12-20T12:16:10;98597.30;;;3.76;68.91
50302;BME280;36550;50.472;19.744;2022-12-20T12:19:02;98596.91;;;3.83;69.19
50302;BME280;36550;50.472;19.744;2022-12-20T12:21:57;98593.77;;;3.88;69.14
50302;BME280;36550;50.472;19.744;2022-12-20T12:24:48;98585.47;;;3.92;68.60
50302;BME280;36550;50.472;19.744;2022-12-20T12:27:35;98581.37;;;3.94;67.68
50302;BME280;36550;50.472;19.744;2022-12-20T12:30:19;98589.81;;;3.96;68.26
50302;BME280;36550;50.472;19.744;2022-12-20T12:33:09;98582.43;;;4.03;67.95
50302;BME280;36550;50.472;19.744;2022-12-20T12:36:24;98586.61;;;4.09;68.22
50302;BME280;36550;50.472;19.744;2022-12-20T12:39:54;98588.48;;;4.15;68.25
50302;BME280;36550;50.472;19.744;2022-12-20T12:42:31;98584.69;;;4.21;68.16
50302;BME280;36550;50.472;19.744;2022-12-20T12:45:25;98599.37;;;4.29;68.13
50302;BME280;36550;50.472;19.744;2022-12-20T12:48:21;98597.07;;;4.30;68.00
50302;BME280;36550;50.472;19.744;2022-12-20T12:51:02;98593.55;;;4.27;67.83
50302;BME280;36550;50.472;19.744;2022-12-20T12:53:50;98592.73;;;4.27;67.88
50302;BME280;36550;50.472;19.744;2022-12-20T12:56:47;98582.66;;;4.28;68.12
50302;BME280;36550;50.472;19.744;2022-12-20T13:02:24;98581.53;;;4.26;68.17
50302;BME280;36550;50.472;19.744;2022-12-20T13:08:14;98569.31;;;4.31;68.47
50302;BME280;36550;50.472;19.744;2022-12-20T13:11:00;98559.22;;;4.32;68.55
50302;BME280;36550;50.472;19.744;2022-12-20T13:13:46;98556.27;;;4.35;68.57
50302;BME280;36550;50.472;19.744;2022-12-20T13:16:30;98553.05;;;4.33;68.08
50302;BME280;36550;50.472;19.744;2022-12-20T13:22:21;98550.36;;;4.26;68.32
50302;BME280;36550;50.472;19.744;2022-12-20T13:25:27;98540.97;;;4.25;68.46
50302;BME280;36550;50.472;19.744;2022-12-20T13:34:02;98533.52;;;4.22;68.45
50302;BME280;36550;50.472;19.744;2022-12-20T13:36:49;98525.11;;;4.20;68.47
50302;BME280;36550;50.472;19.744;2022-12-20T13:39:38;98529.98;;;4.19;68.57
50302;BME280;36550;50.472;19.744;2022-12-20T13:42:37;98526.58;;;4.18;68.77
50302;BME280;36550;50.472;19.744;2022-12-20T13:45:22;98530.03;;;4.15;68.35
50302;BME280;36550;50.472;19.744;2022-12-20T13:48:09;98542.25;;;4.10;68.50
50302;BME280;36550;50.472;19.744;2022-12-20T13:50:56;98556.41;;;4.08;68.51
50302;BME280;36550;50.472;19.744;2022-12-20T13:53:50;98555.16;;;4.03;68.64
50302;BME280;36550;50.472;19.744;2022-12-20T13:56:48;98557.60;;;4.01;68.45
50302;BME280;36550;50.472;19.744;2022-12-20T13:59:34;98562.05;;;3.96;68.64
50302;BME280;36550;50.472;19.744;2022-12-20T14:02:39;98559.67;;;3.91;68.70
50302;BME280;36550;50.472;19.744;2022-12-20T14:05:16;98558.09;;;3.85;68.75
50302;BME280;36550;50.472;19.744;2022-12-20T14:08:12;98568.20;;;3.80;68.88
50302;BME280;36550;50.472;19.744;2022-12-20T14:10:52;98562.42;;;3.74;68.41
50302;BME280;36550;50.472;19.744;2022-12-20T14:13:36;98567.50;;;3.68;68.72
50302;BME280;36550;50.472;19.744;2022-12-20T14:16:22;98560.73;;;3.62;68.85
50302;BME280;36550;50.472;19.744;2022-12-20T14:19:13;98556.20;;;3.60;68.99
50302;BME280;36550;50.472;19.744;2022-12-20T14:21:57;98554.63;;;3.55;68.92
50302;BME280;36550;50.472;19.744;2022-12-20T14:24:43;98558.26;;;3.50;69.00
50302;BME280;36550;50.472;19.744;2022-12-20T14:27:32;98559.27;;;3.45;69.04
50302;BME280;36550;50.472;19.744;2022-12-20T14:30:32;98567.26;;;3.39;68.99
50302;BME280;36550;50.472;19.744;2022-12-20T14:33:28;98572.95;;;3.35;69.13
50302;BME280;36550;50.472;19.744;2022-12-20T14:36:19;98573.33;;;3.27;69.08
50302;BME280;36550;50.472;19.744;2022-12-20T14:42:12;98587.70;;;3.15;69.32
50302;BME280;36550;50.472;19.744;2022-12-20T14:48:05;98583.08;;;3.02;69.41
50302;BME280;36550;50.472;19.744;2022-12-20T14:50:58;98585.67;;;2.98;69.46
50302;BME280;36550;50.472;19.744;2022-12-20T14:53:44;98580.69;;;2.93;69.58
50302;BME280;36550;50.472;19.744;2022-12-20T14:56:30;98579.55;;;2.91;69.73
50302;BME280;36550;50.472;19.744;2022-12-20T14:59:21;98579.28;;;2.86;69.84
50302;BME280;36550;50.472;19.744;2022-12-20T15:08:31;98585.95;;;2.76;70.14
50302;BME280;36550;50.472;19.744;2022-12-20T15:11:20;98584.52;;;2.74;70.22
50302;BME280;36550;50.472;19.744;2022-12-20T15:17:19;98581.32;;;2.67;70.27
50302;BME280;36550;50.472;19.744;2022-12-20T15:20:04;98568.36;;;2.63;70.39
50302;BME280;36550;50.472;19.744;2022-12-20T15:22:48;98563.53;;;2.60;70.38
50302;BME280;36550;50.472;19.744;2022-12-20T15:25:35;98563.06;;;2.57;70.37
50302;BME280;36550;50.472;19.744;2022-12-20T15:28:22;98565.02;;;2.55;70.49
50302;BME280;36550;50.472;19.744;2022-12-20T15:31:11;98566.31;;;2.50;70.54
50302;BME280;36550;50.472;19.744;2022-12-20T15:33:57;98572.65;;;2.48;70.51
50302;BME280;36550;50.472;19.744;2022-12-20T15:36:42;98563.11;;;2.44;70.55
50302;BME280;36550;50.472;19.744;2022-12-20T15:39:26;98569.91;;;2.41;70.58
50302;BME280;36550;50.472;19.744;2022-12-20T15:42:14;98568.14;;;2.38;70.72
50302;BME280;36550;50.472;19.744;2022-12-20T15:45:00;98571.55;;;2.34;70.73
50302;BME280;36550;50.472;19.744;2022-12-20T15:47:44;98567.53;;;2.31;70.90
50302;BME280;36550;50.472;19.744;2022-12-20T15:50:29;98564.45;;;2.32;71.04
50302;BME280;36550;50.472;19.744;2022-12-20T15:53:15;98557.17;;;2.31;71.17
50302;BME280;36550;50.472;19.744;2022-12-20T15:56:00;98548.27;;;2.30;71.21
50302;BME280;36550;50.472;19.744;2022-12-20T15:58:45;98545.37;;;2.29;71.24
50302;BME280;36550;50.472;19.744;2022-12-20T16:01:35;98541.48;;;2.29;71.28
50302;BME280;36550;50.472;19.744;2022-12-20T16:04:21;98529.66;;;2.26;71.23
50302;BME280;36550;50.472;19.744;2022-12-20T16:07:09;98529.83;;;2.25;71.33
50302;BME280;36550;50.472;19.744;2022-12-20T16:09:54;98526.94;;;2.24;71.44
50302;BME280;36550;50.472;19.744;2022-12-20T16:12:38;98520.13;;;2.23;71.44
50302;BME280;36550;50.472;19.744;2022-12-20T16:15:23;98524.34;;;2.20;71.43
50302;BME280;36550;50.472;19.744;2022-12-20T16:18:08;98523.06;;;2.16;71.48
50302;BME280;36550;50.472;19.744;2022-12-20T16:20:54;98523.42;;;2.13;71.44
50302;BME280;36550;50.472;19.744;2022-12-20T16:23:38;98519.37;;;2.10;71.56
50302;BME280;36550;50.472;19.744;2022-12-20T16:26:24;98527.95;;;2.06;71.59